Midnight Sun — CFG7615 — position and weather

sailwx.info

Track history (hours):
 
Tides and Currents Weather Stations Pressure Air Temp Water Temp Dewpoint Dewpoint Depression Visibility Wind Speed Wind Dir Waves Ship Positions

Midnight Sun

Last reported at 2015-Sep-03 01:19 UTC. Time now 2015-Sep-03 02:37 UTC.
Position N 48°52' W 123°19'.

Length 25 m.

Type: Pleasure craft. MMSI: 316001152.

Date/timePositionNaut miles runAvg speedWind from/ knotsBaromVisibWave heightAir tempDewpointWater temp
2015-Sep-03 01:19N 48°52' W 123°19'6 8.0
2015-Sep-03 00:32N 48°58' W 123°20'8 8.4
2015-Sep-02 23:33N 49°06' W 123°20'8 7.9
2015-Sep-02 22:33N 49°14' W 123°18'7 7.2
2015-Sep-02 21:33N 49°19' W 123°10'2 1.8
2015-Sep-02 20:31N 49°18' W 123°08'0 0.0
2015-Sep-02 19:31N 49°18' W 123°08'0 0.0
2015-Sep-02 18:31N 49°18' W 123°08'0 0.0
2015-Sep-02 17:28N 49°18' W 123°08'0 0.0
2015-Sep-02 16:31N 49°18' W 123°08'0 0.0
2015-Sep-02 15:31N 49°18' W 123°08'0 0.0
2015-Sep-02 14:31N 49°18' W 123°08'0 0.0
2015-Sep-02 13:31N 49°18' W 123°08'0 0.0
2015-Sep-02 12:31N 49°18' W 123°08'0 0.0
2015-Sep-02 11:31N 49°18' W 123°08'0 0.0
2015-Sep-02 10:31N 49°18' W 123°08'0 0.0
2015-Sep-02 09:31N 49°18' W 123°08'0 0.0
2015-Sep-02 08:31N 49°18' W 123°08'0 0.0
2015-Sep-02 07:31N 49°18' W 123°08'0 0.0
2015-Sep-02 06:31N 49°18' W 123°08'0 0.0
2015-Sep-02 05:31N 49°18' W 123°08'0 0.0
2015-Sep-02 04:32N 49°18' W 123°08'0 0.0
2015-Sep-02 03:32N 49°18' W 123°08'0 0.0
2015-Sep-02 02:32N 49°18' W 123°08'0 0.0
2015-Sep-02 01:32N 49°18' W 123°08'0 0.0
2015-Sep-02 00:32N 49°18' W 123°08'0 0.0
2015-Sep-01 23:32N 49°18' W 123°08'0 0.0
2015-Sep-01 22:32N 49°18' W 123°08'0 0.0
2015-Sep-01 21:32N 49°18' W 123°08'0 0.0
2015-Sep-01 20:32N 49°18' W 123°08'0 0.0
2015-Sep-01 19:32N 49°18' W 123°08'0 0.0
2015-Sep-01 18:32N 49°18' W 123°08'0 0.0
2015-Sep-01 17:32N 49°18' W 123°08'0 0.0
2015-Sep-01 16:32N 49°18' W 123°08'0 0.0
2015-Sep-01 15:32N 49°18' W 123°08'0 0.0
2015-Sep-01 14:32N 49°18' W 123°08'0 0.0
2015-Sep-01 13:32N 49°18' W 123°08'0 0.0
2015-Sep-01 12:32N 49°18' W 123°08'0 0.0
2015-Sep-01 11:32N 49°18' W 123°08'0 0.0
2015-Sep-01 10:32N 49°18' W 123°08'0 0.0
2015-Sep-01 09:33N 49°18' W 123°08'0 0.0
2015-Sep-01 08:33N 49°18' W 123°08'0 0.0
2015-Sep-01 07:33N 49°18' W 123°08'0 0.0
2015-Sep-01 06:33N 49°18' W 123°08'0 0.0
2015-Sep-01 05:33N 49°18' W 123°08'0 0.0
2015-Sep-01 04:33N 49°18' W 123°08'0 0.0
2015-Sep-01 03:33N 49°18' W 123°08'0 0.0
2015-Sep-01 02:33N 49°18' W 123°08'0 0.0
2015-Sep-01 01:33N 49°18' W 123°08'0 0.0
2015-Sep-01 00:33N 49°18' W 123°08'0 0.0
2015-Aug-31 23:33N 49°18' W 123°08'0 0.0
2015-Aug-31 22:33N 49°18' W 123°08'0 0.0
2015-Aug-31 21:33N 49°18' W 123°08'0 0.0
2015-Aug-31 20:33N 49°18' W 123°08'0 0.0
2015-Aug-31 19:33N 49°18' W 123°08'0 0.0
2015-Aug-31 18:33N 49°18' W 123°08'0 0.0
2015-Aug-31 17:33N 49°18' W 123°08'0 0.0
2015-Aug-31 16:33N 49°18' W 123°08'0 0.0
2015-Aug-31 15:33N 49°18' W 123°08'0 0.0
2015-Aug-31 14:33N 49°18' W 123°08'0 0.0
2015-Aug-31 13:33N 49°18' W 123°08'0 0.0
2015-Aug-31 12:33N 49°18' W 123°08'0 0.0
2015-Aug-31 11:33N 49°18' W 123°08'0 0.0
2015-Aug-31 10:33N 49°18' W 123°08'0 0.0
2015-Aug-31 09:33N 49°18' W 123°08'0 0.0
2015-Aug-31 08:33N 49°18' W 123°08'0 0.0
2015-Aug-31 07:33N 49°18' W 123°08'0 0.0
2015-Aug-31 06:33N 49°18' W 123°08'0 0.0
2015-Aug-31 05:33N 49°18' W 123°08'0 0.0
2015-Aug-31 04:30N 49°18' W 123°08'0 0.0
2015-Aug-31 03:33N 49°18' W 123°08'0 0.0
2015-Aug-31 02:31N 49°18' W 123°08'0 0.0
2015-Aug-31 01:31N 49°18' W 123°08'0 0.0
2015-Aug-31 00:31N 49°18' W 123°08'0 0.0
2015-Aug-30 23:31N 49°18' W 123°08'0 0.0
2015-Aug-30 22:31N 49°18' W 123°08'0 0.0
2015-Aug-30 21:31N 49°18' W 123°08'0 0.0
2015-Aug-30 20:31N 49°18' W 123°08'0 0.0
2015-Aug-30 19:31N 49°18' W 123°08'0 0.0
2015-Aug-30 18:31N 49°18' W 123°08'0 0.0
2015-Aug-30 17:31N 49°18' W 123°08'0 0.0
2015-Aug-30 16:31N 49°18' W 123°08'0 0.0
2015-Aug-30 15:31N 49°18' W 123°08'0 0.0
2015-Aug-30 14:28N 49°18' W 123°08'0 0.0
2015-Aug-30 13:28N 49°18' W 123°08'0 0.0
2015-Aug-30 12:31N 49°18' W 123°08'0 0.0
2015-Aug-30 11:28N 49°18' W 123°08'0 0.0
2015-Aug-30 10:31N 49°18' W 123°08'0 0.0
2015-Aug-30 09:31N 49°18' W 123°08'0 0.0
2015-Aug-30 08:25N 49°18' W 123°08'0 0.0
2015-Aug-30 07:31N 49°18' W 123°08'0 0.0
2015-Aug-30 06:31N 49°18' W 123°08'0 0.0
2015-Aug-30 05:28N 49°18' W 123°08'0 0.0
2015-Aug-30 04:31N 49°18' W 123°08'0 0.0
2015-Aug-30 03:19N 49°18' W 123°08'0 0.0
2015-Aug-30 01:31N 49°18' W 123°08'0 0.0
2015-Aug-30 00:28N 49°18' W 123°08'0 0.0
2015-Aug-29 23:31N 49°18' W 123°08'0 0.0
2015-Aug-29 22:31N 49°18' W 123°08'0 0.0
2015-Aug-29 21:22N 49°18' W 123°08'0 0.0
2015-Aug-29 20:31N 49°18' W 123°08'0 0.0
2015-Aug-29 19:31N 49°18' W 123°08'0 0.0
2015-Aug-29 18:31N 49°18' W 123°08'0 0.0
2015-Aug-29 17:31N 49°18' W 123°08'0 0.0
2015-Aug-29 16:31N 49°18' W 123°08'0 0.0
2015-Aug-29 15:31N 49°18' W 123°08'0 0.0
2015-Aug-29 14:31N 49°18' W 123°08'0 0.0
2015-Aug-29 13:31N 49°18' W 123°08'0 0.0
2015-Aug-29 12:31N 49°18' W 123°08'0 0.0
2015-Aug-29 11:31N 49°18' W 123°08'0 0.0
2015-Aug-29 10:31N 49°18' W 123°08'0 0.0
2015-Aug-29 09:32N 49°18' W 123°08'0 0.0
2015-Aug-29 08:32N 49°18' W 123°08'0 0.0
2015-Aug-29 07:32N 49°18' W 123°08'0 0.0
2015-Aug-29 06:32N 49°18' W 123°08'0 0.0
2015-Aug-29 05:32N 49°18' W 123°08'0 0.0
2015-Aug-29 04:32N 49°18' W 123°08'0 0.0
2015-Aug-29 03:32N 49°18' W 123°08'0 0.0
2015-Aug-29 02:32N 49°18' W 123°08'0 0.0
2015-Aug-29 01:32N 49°18' W 123°08'0 0.0
2015-Aug-29 00:32N 49°18' W 123°08'0 0.0
2015-Aug-28 23:32N 49°18' W 123°08'0 0.0
2015-Aug-28 22:20N 49°18' W 123°08'0 0.0
2015-Aug-28 21:32N 49°18' W 123°08'0 0.0
2015-Aug-28 20:32N 49°18' W 123°08'0 0.0
2015-Aug-28 19:32N 49°18' W 123°08'0 0.0
2015-Aug-28 18:32N 49°18' W 123°08'0 0.0
2015-Aug-28 17:32N 49°18' W 123°08'0 0.0
2015-Aug-28 16:32N 49°18' W 123°08'0 0.0
2015-Aug-28 15:32N 49°18' W 123°08'0 0.0
2015-Aug-28 14:32N 49°18' W 123°08'0 0.0
2015-Aug-28 13:32N 49°18' W 123°08'0 0.0
2015-Aug-28 12:33N 49°18' W 123°08'0 0.0
2015-Aug-28 11:31N 49°18' W 123°08'0 0.0
2015-Aug-28 10:31N 49°18' W 123°08'0 0.0
2015-Aug-28 09:31N 49°18' W 123°08'0 0.0
2015-Aug-28 08:34N 49°18' W 123°08'0 0.0
2015-Aug-28 07:31N 49°18' W 123°08'0 0.0
2015-Aug-28 06:31N 49°18' W 123°08'0 0.0
2015-Aug-28 05:31N 49°18' W 123°08'0 0.0
2015-Aug-28 04:31N 49°18' W 123°08'0 0.0
2015-Aug-28 03:31N 49°18' W 123°08'0 0.0
2015-Aug-28 02:31N 49°18' W 123°08'0 0.0
2015-Aug-28 01:31N 49°18' W 123°08'0 0.0
2015-Aug-28 00:31N 49°18' W 123°08'0 0.0
2015-Aug-27 23:31N 49°18' W 123°08'0 0.0
2015-Aug-27 22:31N 49°18' W 123°08'0 0.0
2015-Aug-27 21:31N 49°18' W 123°08'0 0.0
2015-Aug-27 20:31N 49°18' W 123°08'0 0.0
2015-Aug-27 19:31N 49°18' W 123°08'0 0.0
2015-Aug-27 18:31N 49°18' W 123°08'0 0.0
2015-Aug-27 17:31N 49°18' W 123°08'0 0.0
2015-Aug-27 16:31N 49°18' W 123°08'0 0.0
2015-Aug-27 15:33N 49°18' W 123°08'0 0.0
2015-Aug-27 14:33N 49°18' W 123°08'0 0.0
2015-Aug-27 13:33N 49°18' W 123°08'0 0.0
2015-Aug-27 12:33N 49°18' W 123°08'0 0.0
2015-Aug-27 11:31N 49°18' W 123°08'0 0.0
2015-Aug-27 10:31N 49°18' W 123°08'0 0.0
2015-Aug-27 09:31N 49°18' W 123°08'0 0.0
2015-Aug-27 08:31N 49°18' W 123°08'0 0.0
2015-Aug-27 07:31N 49°18' W 123°08'0 0.0
2015-Aug-27 06:31N 49°18' W 123°08'0 0.0
2015-Aug-27 05:31N 49°18' W 123°08'0 0.0
2015-Aug-27 04:31N 49°18' W 123°08'0 0.0
2015-Aug-27 03:31N 49°18' W 123°08'0 0.0
2015-Aug-27 02:31N 49°18' W 123°08'0 0.0
2015-Aug-27 01:31N 49°18' W 123°08'0 0.0
2015-Aug-27 00:31N 49°18' W 123°08'0 0.0
2015-Aug-26 23:31N 49°18' W 123°08'0 0.0
2015-Aug-26 22:31N 49°18' W 123°08'0 0.0
2015-Aug-26 21:31N 49°18' W 123°08'0 0.0
2015-Aug-26 20:33N 49°18' W 123°08'0 0.0
2015-Aug-26 19:33N 49°18' W 123°08'0 0.0
2015-Aug-26 18:33N 49°18' W 123°08'0 0.0
2015-Aug-26 17:32N 49°18' W 123°08'0 0.0
2015-Aug-26 16:32N 49°18' W 123°08'0 0.0
2015-Aug-26 15:32N 49°18' W 123°08'0 0.0
2015-Aug-26 14:32N 49°18' W 123°08'0 0.0
2015-Aug-26 13:32N 49°18' W 123°08'0 0.0
2015-Aug-26 12:32N 49°18' W 123°08'0 0.0
2015-Aug-26 11:32N 49°18' W 123°08'0 0.0
2015-Aug-26 10:32N 49°18' W 123°08'0 0.0
2015-Aug-26 09:32N 49°18' W 123°08'0 0.0
2015-Aug-26 08:32N 49°18' W 123°08'0 0.0
2015-Aug-26 07:32N 49°18' W 123°08'0 0.0
2015-Aug-26 06:32N 49°18' W 123°08'0 0.0
2015-Aug-26 05:32N 49°18' W 123°08'0 0.0
2015-Aug-26 04:32N 49°18' W 123°08'0 0.0
2015-Aug-26 03:32N 49°18' W 123°08'0 0.0
2015-Aug-26 02:32N 49°18' W 123°08'0 0.0
2015-Aug-26 01:32N 49°18' W 123°08'0 0.0
2015-Aug-26 00:32N 49°18' W 123°08'0 0.0
2015-Aug-25 23:32N 49°18' W 123°08'0 0.0
2015-Aug-25 22:32N 49°18' W 123°08'0 0.0
2015-Aug-25 21:32N 49°18' W 123°08'0 0.0
2015-Aug-25 20:32N 49°18' W 123°08'0 0.0
2015-Aug-25 19:32N 49°18' W 123°08'0 0.0
2015-Aug-25 18:32N 49°18' W 123°08'0 0.0
2015-Aug-25 17:32N 49°18' W 123°08'0 0.0
2015-Aug-25 16:32N 49°18' W 123°08'0 0.0
2015-Aug-25 15:32N 49°18' W 123°08'0 0.0
2015-Aug-25 14:32N 49°18' W 123°08'0 0.0
2015-Aug-25 13:32N 49°18' W 123°08'0 0.0
2015-Aug-25 12:32N 49°18' W 123°08'0 0.0
2015-Aug-25 11:32N 49°18' W 123°08'0 0.0
2015-Aug-25 10:32N 49°18' W 123°08'0 0.0
2015-Aug-25 09:32N 49°18' W 123°08'0 0.0
2015-Aug-25 08:32N 49°18' W 123°08'0 0.0
2015-Aug-25 07:32N 49°18' W 123°08'0 0.0
2015-Aug-25 06:32N 49°18' W 123°08'0 0.0
2015-Aug-25 05:33N 49°18' W 123°08'0 0.0
2015-Aug-25 04:33N 49°18' W 123°08'0 0.0
2015-Aug-25 03:33N 49°18' W 123°08'0 0.0
2015-Aug-25 02:33N 49°18' W 123°08'0 0.0
2015-Aug-25 01:33N 49°18' W 123°08'0 0.0
2015-Aug-25 00:33N 49°18' W 123°08'0 0.0
2015-Aug-24 23:33N 49°18' W 123°08'0 0.0
2015-Aug-24 22:33N 49°18' W 123°08'0 0.0
2015-Aug-24 21:33N 49°18' W 123°08'0 0.0
2015-Aug-24 20:33N 49°18' W 123°08'0 0.0
2015-Aug-24 19:33N 49°18' W 123°08'0 0.0
2015-Aug-24 18:33N 49°18' W 123°08'0 0.0
2015-Aug-24 17:33N 49°18' W 123°08'0 0.0
2015-Aug-24 16:33N 49°18' W 123°08'0 0.0
2015-Aug-24 15:33N 49°18' W 123°08'0 0.0
2015-Aug-24 14:33N 49°18' W 123°08'0 0.0
2015-Aug-24 13:33N 49°18' W 123°08'0 0.0
2015-Aug-24 12:33N 49°18' W 123°08'0 0.0
2015-Aug-24 11:33N 49°18' W 123°08'0 0.0
2015-Aug-24 10:30N 49°18' W 123°08'0 0.0
2015-Aug-24 09:33N 49°18' W 123°08'0 0.0
2015-Aug-24 08:33N 49°18' W 123°08'0 0.0
2015-Aug-24 07:33N 49°18' W 123°08'0 0.0
2015-Aug-24 06:33N 49°18' W 123°08'0 0.0
2015-Aug-24 05:33N 49°18' W 123°08'0 0.0
2015-Aug-24 04:33N 49°18' W 123°08'0 0.0
2015-Aug-24 03:33N 49°18' W 123°08'0 0.0
2015-Aug-24 02:33N 49°18' W 123°08'0 0.0
2015-Aug-24 01:33N 49°18' W 123°08'  
Track history (hours):
 
Tides and Currents Weather Stations Pressure Air Temp Water Temp Dewpoint Dewpoint Depression Visibility Wind Speed Wind Dir Waves Ship Positions

Midnight Sun

Last reported at 2015-Sep-03 01:19 UTC. Time now 2015-Sep-03 02:37 UTC.
Position N 48°52' W 123°19'.

Length 25 m.

Type: Pleasure craft. MMSI: 316001152.

Date/timePositionNaut miles runAvg speedWind from/ knotsBaromVisibWave heightAir tempDewpointWater temp
2015-Sep-03 01:19N 48°52' W 123°19'6 8.0
2015-Sep-03 00:32N 48°58' W 123°20'8 8.4
2015-Sep-02 23:33N 49°06' W 123°20'8 7.9
2015-Sep-02 22:33N 49°14' W 123°18'7 7.2
2015-Sep-02 21:33N 49°19' W 123°10'2 1.8
2015-Sep-02 20:31N 49°18' W 123°08'0 0.0
2015-Sep-02 19:31N 49°18' W 123°08'0 0.0
2015-Sep-02 18:31N 49°18' W 123°08'0 0.0
2015-Sep-02 17:28N 49°18' W 123°08'0 0.0
2015-Sep-02 16:31N 49°18' W 123°08'0 0.0
2015-Sep-02 15:31N 49°18' W 123°08'0 0.0
2015-Sep-02 14:31N 49°18' W 123°08'0 0.0
2015-Sep-02 13:31N 49°18' W 123°08'0 0.0
2015-Sep-02 12:31N 49°18' W 123°08'0 0.0
2015-Sep-02 11:31N 49°18' W 123°08'0 0.0
2015-Sep-02 10:31N 49°18' W 123°08'0 0.0
2015-Sep-02 09:31N 49°18' W 123°08'0 0.0
2015-Sep-02 08:31N 49°18' W 123°08'0 0.0
2015-Sep-02 07:31N 49°18' W 123°08'0 0.0
2015-Sep-02 06:31N 49°18' W 123°08'0 0.0
2015-Sep-02 05:31N 49°18' W 123°08'0 0.0
2015-Sep-02 04:32N 49°18' W 123°08'0 0.0
2015-Sep-02 03:32N 49°18' W 123°08'0 0.0
2015-Sep-02 02:32N 49°18' W 123°08'0 0.0
2015-Sep-02 01:32N 49°18' W 123°08'0 0.0
2015-Sep-02 00:32N 49°18' W 123°08'0 0.0
2015-Sep-01 23:32N 49°18' W 123°08'0 0.0
2015-Sep-01 22:32N 49°18' W 123°08'0 0.0
2015-Sep-01 21:32N 49°18' W 123°08'0 0.0
2015-Sep-01 20:32N 49°18' W 123°08'0 0.0
2015-Sep-01 19:32N 49°18' W 123°08'0 0.0
2015-Sep-01 18:32N 49°18' W 123°08'0 0.0
2015-Sep-01 17:32N 49°18' W 123°08'0 0.0
2015-Sep-01 16:32N 49°18' W 123°08'0 0.0
2015-Sep-01 15:32N 49°18' W 123°08'0 0.0
2015-Sep-01 14:32N 49°18' W 123°08'0 0.0
2015-Sep-01 13:32N 49°18' W 123°08'0 0.0
2015-Sep-01 12:32N 49°18' W 123°08'0 0.0
2015-Sep-01 11:32N 49°18' W 123°08'0 0.0
2015-Sep-01 10:32N 49°18' W 123°08'0 0.0
2015-Sep-01 09:33N 49°18' W 123°08'0 0.0
2015-Sep-01 08:33N 49°18' W 123°08'0 0.0
2015-Sep-01 07:33N 49°18' W 123°08'0 0.0
2015-Sep-01 06:33N 49°18' W 123°08'0 0.0
2015-Sep-01 05:33N 49°18' W 123°08'0 0.0
2015-Sep-01 04:33N 49°18' W 123°08'0 0.0
2015-Sep-01 03:33N 49°18' W 123°08'0 0.0
2015-Sep-01 02:33N 49°18' W 123°08'0 0.0
2015-Sep-01 01:33N 49°18' W 123°08'0 0.0
2015-Sep-01 00:33N 49°18' W 123°08'0 0.0
2015-Aug-31 23:33N 49°18' W 123°08'0 0.0
2015-Aug-31 22:33N 49°18' W 123°08'0 0.0
2015-Aug-31 21:33N 49°18' W 123°08'0 0.0
2015-Aug-31 20:33N 49°18' W 123°08'0 0.0
2015-Aug-31 19:33N 49°18' W 123°08'0 0.0
2015-Aug-31 18:33N 49°18' W 123°08'0 0.0
2015-Aug-31 17:33N 49°18' W 123°08'0 0.0
2015-Aug-31 16:33N 49°18' W 123°08'0 0.0
2015-Aug-31 15:33N 49°18' W 123°08'0 0.0
2015-Aug-31 14:33N 49°18' W 123°08'0 0.0
2015-Aug-31 13:33N 49°18' W 123°08'0 0.0
2015-Aug-31 12:33N 49°18' W 123°08'0 0.0
2015-Aug-31 11:33N 49°18' W 123°08'0 0.0
2015-Aug-31 10:33N 49°18' W 123°08'0 0.0
2015-Aug-31 09:33N 49°18' W 123°08'0 0.0
2015-Aug-31 08:33N 49°18' W 123°08'0 0.0
2015-Aug-31 07:33N 49°18' W 123°08'0 0.0
2015-Aug-31 06:33N 49°18' W 123°08'0 0.0
2015-Aug-31 05:33N 49°18' W 123°08'0 0.0
2015-Aug-31 04:30N 49°18' W 123°08'0 0.0
2015-Aug-31 03:33N 49°18' W 123°08'0 0.0
2015-Aug-31 02:31N 49°18' W 123°08'0 0.0
2015-Aug-31 01:31N 49°18' W 123°08'0 0.0
2015-Aug-31 00:31N 49°18' W 123°08'0 0.0
2015-Aug-30 23:31N 49°18' W 123°08'0 0.0
2015-Aug-30 22:31N 49°18' W 123°08'0 0.0
2015-Aug-30 21:31N 49°18' W 123°08'0 0.0
2015-Aug-30 20:31N 49°18' W 123°08'0 0.0
2015-Aug-30 19:31N 49°18' W 123°08'0 0.0
2015-Aug-30 18:31N 49°18' W 123°08'0 0.0
2015-Aug-30 17:31N 49°18' W 123°08'0 0.0
2015-Aug-30 16:31N 49°18' W 123°08'0 0.0
2015-Aug-30 15:31N 49°18' W 123°08'0 0.0
2015-Aug-30 14:28N 49°18' W 123°08'0 0.0
2015-Aug-30 13:28N 49°18' W 123°08'0 0.0
2015-Aug-30 12:31N 49°18' W 123°08'0 0.0
2015-Aug-30 11:28N 49°18' W 123°08'0 0.0
2015-Aug-30 10:31N 49°18' W 123°08'0 0.0
2015-Aug-30 09:31N 49°18' W 123°08'0 0.0
2015-Aug-30 08:25N 49°18' W 123°08'0 0.0
2015-Aug-30 07:31N 49°18' W 123°08'0 0.0
2015-Aug-30 06:31N 49°18' W 123°08'0 0.0
2015-Aug-30 05:28N 49°18' W 123°08'0 0.0
2015-Aug-30 04:31N 49°18' W 123°08'0 0.0
2015-Aug-30 03:19N 49°18' W 123°08'0 0.0
2015-Aug-30 01:31N 49°18' W 123°08'0 0.0
2015-Aug-30 00:28N 49°18' W 123°08'0 0.0
2015-Aug-29 23:31N 49°18' W 123°08'0 0.0
2015-Aug-29 22:31N 49°18' W 123°08'0 0.0
2015-Aug-29 21:22N 49°18' W 123°08'0 0.0
2015-Aug-29 20:31N 49°18' W 123°08'0 0.0
2015-Aug-29 19:31N 49°18' W 123°08'0 0.0
2015-Aug-29 18:31N 49°18' W 123°08'0 0.0
2015-Aug-29 17:31N 49°18' W 123°08'0 0.0
2015-Aug-29 16:31N 49°18' W 123°08'0 0.0
2015-Aug-29 15:31N 49°18' W 123°08'0 0.0
2015-Aug-29 14:31N 49°18' W 123°08'0 0.0
2015-Aug-29 13:31N 49°18' W 123°08'0 0.0
2015-Aug-29 12:31N 49°18' W 123°08'0 0.0
2015-Aug-29 11:31N 49°18' W 123°08'0 0.0
2015-Aug-29 10:31N 49°18' W 123°08'0 0.0
2015-Aug-29 09:32N 49°18' W 123°08'0 0.0
2015-Aug-29 08:32N 49°18' W 123°08'0 0.0
2015-Aug-29 07:32N 49°18' W 123°08'0 0.0
2015-Aug-29 06:32N 49°18' W 123°08'0 0.0
2015-Aug-29 05:32N 49°18' W 123°08'0 0.0
2015-Aug-29 04:32N 49°18' W 123°08'0 0.0
2015-Aug-29 03:32N 49°18' W 123°08'0 0.0
2015-Aug-29 02:32N 49°18' W 123°08'0 0.0
2015-Aug-29 01:32N 49°18' W 123°08'0 0.0
2015-Aug-29 00:32N 49°18' W 123°08'0 0.0
2015-Aug-28 23:32N 49°18' W 123°08'0 0.0
2015-Aug-28 22:20N 49°18' W 123°08'0 0.0
2015-Aug-28 21:32N 49°18' W 123°08'0 0.0
2015-Aug-28 20:32N 49°18' W 123°08'0 0.0
2015-Aug-28 19:32N 49°18' W 123°08'0 0.0
2015-Aug-28 18:32N 49°18' W 123°08'0 0.0
2015-Aug-28 17:32N 49°18' W 123°08'0 0.0
2015-Aug-28 16:32N 49°18' W 123°08'0 0.0
2015-Aug-28 15:32N 49°18' W 123°08'0 0.0
2015-Aug-28 14:32N 49°18' W 123°08'0 0.0
2015-Aug-28 13:32N 49°18' W 123°08'0 0.0
2015-Aug-28 12:33N 49°18' W 123°08'0 0.0
2015-Aug-28 11:31N 49°18' W 123°08'0 0.0
2015-Aug-28 10:31N 49°18' W 123°08'0 0.0
2015-Aug-28 09:31N 49°18' W 123°08'0 0.0
2015-Aug-28 08:34N 49°18' W 123°08'0 0.0
2015-Aug-28 07:31N 49°18' W 123°08'0 0.0
2015-Aug-28 06:31N 49°18' W 123°08'0 0.0
2015-Aug-28 05:31N 49°18' W 123°08'0 0.0
2015-Aug-28 04:31N 49°18' W 123°08'0 0.0
2015-Aug-28 03:31N 49°18' W 123°08'0 0.0
2015-Aug-28 02:31N 49°18' W 123°08'0 0.0
2015-Aug-28 01:31N 49°18' W 123°08'0 0.0
2015-Aug-28 00:31N 49°18' W 123°08'0 0.0
2015-Aug-27 23:31N 49°18' W 123°08'0 0.0
2015-Aug-27 22:31N 49°18' W 123°08'0 0.0
2015-Aug-27 21:31N 49°18' W 123°08'0 0.0
2015-Aug-27 20:31N 49°18' W 123°08'0 0.0
2015-Aug-27 19:31N 49°18' W 123°08'0 0.0
2015-Aug-27 18:31N 49°18' W 123°08'0 0.0
2015-Aug-27 17:31N 49°18' W 123°08'0 0.0
2015-Aug-27 16:31N 49°18' W 123°08'0 0.0
2015-Aug-27 15:33N 49°18' W 123°08'0 0.0
2015-Aug-27 14:33N 49°18' W 123°08'0 0.0
2015-Aug-27 13:33N 49°18' W 123°08'0 0.0
2015-Aug-27 12:33N 49°18' W 123°08'0 0.0
2015-Aug-27 11:31N 49°18' W 123°08'0 0.0
2015-Aug-27 10:31N 49°18' W 123°08'0 0.0
2015-Aug-27 09:31N 49°18' W 123°08'0 0.0
2015-Aug-27 08:31N 49°18' W 123°08'0 0.0
2015-Aug-27 07:31N 49°18' W 123°08'0 0.0
2015-Aug-27 06:31N 49°18' W 123°08'0 0.0
2015-Aug-27 05:31N 49°18' W 123°08'0 0.0
2015-Aug-27 04:31N 49°18' W 123°08'0 0.0
2015-Aug-27 03:31N 49°18' W 123°08'0 0.0
2015-Aug-27 02:31N 49°18' W 123°08'0 0.0
2015-Aug-27 01:31N 49°18' W 123°08'0 0.0
2015-Aug-27 00:31N 49°18' W 123°08'0 0.0
2015-Aug-26 23:31N 49°18' W 123°08'0 0.0
2015-Aug-26 22:31N 49°18' W 123°08'0 0.0
2015-Aug-26 21:31N 49°18' W 123°08'0 0.0
2015-Aug-26 20:33N 49°18' W 123°08'0 0.0
2015-Aug-26 19:33N 49°18' W 123°08'0 0.0
2015-Aug-26 18:33N 49°18' W 123°08'0 0.0
2015-Aug-26 17:32N 49°18' W 123°08'0 0.0
2015-Aug-26 16:32N 49°18' W 123°08'0 0.0
2015-Aug-26 15:32N 49°18' W 123°08'0 0.0
2015-Aug-26 14:32N 49°18' W 123°08'0 0.0
2015-Aug-26 13:32N 49°18' W 123°08'0 0.0
2015-Aug-26 12:32N 49°18' W 123°08'0 0.0
2015-Aug-26 11:32N 49°18' W 123°08'0 0.0
2015-Aug-26 10:32N 49°18' W 123°08'0 0.0
2015-Aug-26 09:32N 49°18' W 123°08'0 0.0
2015-Aug-26 08:32N 49°18' W 123°08'0 0.0
2015-Aug-26 07:32N 49°18' W 123°08'0 0.0
2015-Aug-26 06:32N 49°18' W 123°08'0 0.0
2015-Aug-26 05:32N 49°18' W 123°08'0 0.0
2015-Aug-26 04:32N 49°18' W 123°08'0 0.0
2015-Aug-26 03:32N 49°18' W 123°08'0 0.0
2015-Aug-26 02:32N 49°18' W 123°08'0 0.0
2015-Aug-26 01:32N 49°18' W 123°08'0 0.0
2015-Aug-26 00:32N 49°18' W 123°08'0 0.0
2015-Aug-25 23:32N 49°18' W 123°08'0 0.0
2015-Aug-25 22:32N 49°18' W 123°08'0 0.0
2015-Aug-25 21:32N 49°18' W 123°08'0 0.0
2015-Aug-25 20:32N 49°18' W 123°08'0 0.0
2015-Aug-25 19:32N 49°18' W 123°08'0 0.0
2015-Aug-25 18:32N 49°18' W 123°08'0 0.0
2015-Aug-25 17:32N 49°18' W 123°08'0 0.0
2015-Aug-25 16:32N 49°18' W 123°08'0 0.0
2015-Aug-25 15:32N 49°18' W 123°08'0 0.0
2015-Aug-25 14:32N 49°18' W 123°08'0 0.0
2015-Aug-25 13:32N 49°18' W 123°08'0 0.0
2015-Aug-25 12:32N 49°18' W 123°08'0 0.0
2015-Aug-25 11:32N 49°18' W 123°08'0 0.0
2015-Aug-25 10:32N 49°18' W 123°08'0 0.0
2015-Aug-25 09:32N 49°18' W 123°08'0 0.0
2015-Aug-25 08:32N 49°18' W 123°08'0 0.0
2015-Aug-25 07:32N 49°18' W 123°08'0 0.0
2015-Aug-25 06:32N 49°18' W 123°08'0 0.0
2015-Aug-25 05:33N 49°18' W 123°08'0 0.0
2015-Aug-25 04:33N 49°18' W 123°08'0 0.0
2015-Aug-25 03:33N 49°18' W 123°08'0 0.0
2015-Aug-25 02:33N 49°18' W 123°08'0 0.0
2015-Aug-25 01:33N 49°18' W 123°08'0 0.0
2015-Aug-25 00:33N 49°18' W 123°08'0 0.0
2015-Aug-24 23:33N 49°18' W 123°08'0 0.0
2015-Aug-24 22:33N 49°18' W 123°08'0 0.0
2015-Aug-24 21:33N 49°18' W 123°08'0 0.0
2015-Aug-24 20:33N 49°18' W 123°08'0 0.0
2015-Aug-24 19:33N 49°18' W 123°08'0 0.0
2015-Aug-24 18:33N 49°18' W 123°08'0 0.0
2015-Aug-24 17:33N 49°18' W 123°08'0 0.0
2015-Aug-24 16:33N 49°18' W 123°08'0 0.0
2015-Aug-24 15:33N 49°18' W 123°08'0 0.0
2015-Aug-24 14:33N 49°18' W 123°08'0 0.0
2015-Aug-24 13:33N 49°18' W 123°08'0 0.0
2015-Aug-24 12:33N 49°18' W 123°08'0 0.0
2015-Aug-24 11:33N 49°18' W 123°08'0 0.0
2015-Aug-24 10:30N 49°18' W 123°08'0 0.0
2015-Aug-24 09:33N 49°18' W 123°08'0 0.0
2015-Aug-24 08:33N 49°18' W 123°08'0 0.0
2015-Aug-24 07:33N 49°18' W 123°08'0 0.0
2015-Aug-24 06:33N 49°18' W 123°08'0 0.0
2015-Aug-24 05:33N 49°18' W 123°08'0 0.0
2015-Aug-24 04:33N 49°18' W 123°08'0 0.0
2015-Aug-24 03:33N 49°18' W 123°08'0 0.0
2015-Aug-24 02:33N 49°18' W 123°08'0 0.0
2015-Aug-24 01:33N 49°18' W 123°08'  

Dump ship's entire track history